createdAt,value
2022-10-22T00:01:06.516Z,10.25
2022-10-22T00:03:34.391Z,11.30
2022-10-22T00:06:02.476Z,11.77
2022-10-22T00:08:30.538Z,10.35
2022-10-22T00:10:58.490Z,10.75
2022-10-22T00:13:28.337Z,9.93
2022-10-22T00:15:56.166Z,10.20
2022-10-22T00:18:24.003Z,9.93
2022-10-22T00:20:54.462Z,9.35
2022-10-22T00:23:22.562Z,9.23
2022-10-22T00:25:50.462Z,10.55
2022-10-22T00:28:18.313Z,8.88
2022-10-22T00:30:47.871Z,13.80
2022-10-22T00:33:15.938Z,8.25
2022-10-22T00:35:45.275Z,10.02
2022-10-22T00:38:13.311Z,11.43
2022-10-22T00:40:41.283Z,9.98
2022-10-22T00:43:12.295Z,9.25
2022-10-22T00:45:40.154Z,8.60
2022-10-22T00:48:12.156Z,8.20
2022-10-22T00:50:42.605Z,10.10
2022-10-22T00:53:14.356Z,8.05
2022-10-22T00:55:44.451Z,7.88
2022-10-22T00:58:14.230Z,9.68
2022-10-22T01:00:42.509Z,9.77
2022-10-22T01:03:12.574Z,6.63
2022-10-22T01:05:44.046Z,10.82
2022-10-22T01:08:23.637Z,9.80
2022-10-22T01:11:00.516Z,8.40
2022-10-22T01:13:38.622Z,7.72
2022-10-22T01:16:12.579Z,7.28
2022-10-22T01:18:52.360Z,6.65
2022-10-22T01:21:28.036Z,9.82
2022-10-22T01:24:22.663Z,8.32
2022-10-22T01:27:04.976Z,6.20
2022-10-22T01:29:39.951Z,9.98
2022-10-22T01:32:13.884Z,11.25
2022-10-22T01:34:48.135Z,11.63
2022-10-22T01:37:18.541Z,13.13
2022-10-22T01:39:48.892Z,9.70
2022-10-22T01:42:16.779Z,11.23
2022-10-22T01:44:48.819Z,10.88
2022-10-22T01:47:22.807Z,17.20
2022-10-22T01:50:11.203Z,10.75
2022-10-22T01:52:53.484Z,10.82
2022-10-22T01:55:29.564Z,11.80
2022-10-22T01:58:10.123Z,8.70
2022-10-22T02:00:51.710Z,7.32
2022-10-22T02:03:25.850Z,12.57
2022-10-22T02:05:57.872Z,11.38
2022-10-22T02:08:30.442Z,13.57
2022-10-22T02:10:59.772Z,9.55
2022-10-22T02:13:36.150Z,12.13
2022-10-22T02:16:09.457Z,8.90
2022-10-22T02:18:41.199Z,10.25
2022-10-22T02:21:09.574Z,11.95
2022-10-22T02:23:37.964Z,9.35
2022-10-22T02:26:10.716Z,9.10
2022-10-22T02:28:45.586Z,11.32
2022-10-22T02:31:20.683Z,12.07
2022-10-22T02:33:52.140Z,14.73
2022-10-22T02:36:20.913Z,10.80
2022-10-22T02:38:50.988Z,11.55
2022-10-22T02:41:19.525Z,12.52
2022-10-22T02:43:53.182Z,13.57
2022-10-22T02:46:22.474Z,11.25
2022-10-22T02:48:50.329Z,13.67
2022-10-22T02:51:21.345Z,11.57
2022-10-22T02:53:49.208Z,9.38
2022-10-22T02:56:19.763Z,9.50
2022-10-22T02:58:47.661Z,12.85
2022-10-22T03:01:16.328Z,9.88
2022-10-22T03:03:45.693Z,9.52
2022-10-22T03:06:13.688Z,8.20
2022-10-22T03:08:42.228Z,12.10
2022-10-22T03:11:10.226Z,9.27
2022-10-22T03:13:38.346Z,10.13
2022-10-22T03:16:06.843Z,13.10
2022-10-22T03:18:34.860Z,9.77
2022-10-22T03:21:10.997Z,11.52
2022-10-22T03:23:40.176Z,10.45
2022-10-22T03:26:08.754Z,10.45
2022-10-22T03:28:37.721Z,8.50
2022-10-22T03:31:05.661Z,10.40
2022-10-22T03:33:36.576Z,7.35
2022-10-22T03:36:04.831Z,8.07
2022-10-22T03:38:36.411Z,11.88
2022-10-22T03:41:04.576Z,11.50
2022-10-22T03:43:32.563Z,7.60
2022-10-22T03:46:00.498Z,9.93
2022-10-22T03:48:28.646Z,10.02
2022-10-22T03:50:56.584Z,7.60
2022-10-22T03:53:24.470Z,17.25
2022-10-22T03:55:54.130Z,12.13
2022-10-22T03:58:21.962Z,29.55
2022-10-22T04:00:49.958Z,23.08
2022-10-22T04:03:17.824Z,13.98
2022-10-22T04:05:45.747Z,10.27
2022-10-22T04:08:13.627Z,17.95
2022-10-22T04:10:41.566Z,8.25
2022-10-22T04:13:11.201Z,11.65
2022-10-22T04:15:39.198Z,11.60
2022-10-22T04:18:07.113Z,10.45
2022-10-22T04:20:34.939Z,8.88
2022-10-22T04:23:05.762Z,9.98
2022-10-22T04:25:33.659Z,11.30
2022-10-22T04:28:01.551Z,10.70
2022-10-22T04:30:31.138Z,16.70
2022-10-22T04:32:59.110Z,14.82
2022-10-22T04:35:27.054Z,8.35
2022-10-22T04:37:55.612Z,11.07
2022-10-22T04:40:24.170Z,10.05
2022-10-22T04:42:52.058Z,10.23
2022-10-22T04:45:19.891Z,8.32
2022-10-22T04:47:49.126Z,9.55
2022-10-22T04:50:17.178Z,11.05
2022-10-22T04:52:45.056Z,9.40
2022-10-22T04:55:13.046Z,14.18
2022-10-22T04:57:41.142Z,11.35
2022-10-22T05:00:10.370Z,9.02
2022-10-22T05:02:38.311Z,11.10
2022-10-22T05:05:08.080Z,10.65
2022-10-22T05:07:35.979Z,12.73
2022-10-22T05:10:03.818Z,9.32
2022-10-22T05:12:31.673Z,8.30
2022-10-22T05:14:59.559Z,9.45
2022-10-22T05:17:27.449Z,10.68
2022-10-22T05:19:55.405Z,10.93
2022-10-22T05:22:24.801Z,14.73
2022-10-22T05:24:52.755Z,7.63
2022-10-22T05:27:20.776Z,8.45
2022-10-22T05:29:48.835Z,9.15
2022-10-22T05:32:16.664Z,12.48
2022-10-22T05:34:44.504Z,12.18
2022-10-22T05:37:12.362Z,12.48
2022-10-22T05:39:44.369Z,11.43
2022-10-22T05:42:12.215Z,14.77
2022-10-22T05:44:40.972Z,12.82
2022-10-22T05:47:10.151Z,12.18
2022-10-22T05:49:38.063Z,10.00
2022-10-22T05:52:06.172Z,10.70
2022-10-22T05:54:34.048Z,10.70
2022-10-22T05:57:03.317Z,12.88
2022-10-22T05:59:31.205Z,10.68
2022-10-22T06:01:59.155Z,8.95
2022-10-22T06:04:27.062Z,11.73
2022-10-22T06:06:55.296Z,12.27
2022-10-22T06:09:26.030Z,9.40
2022-10-22T06:11:54.336Z,10.82
2022-10-22T06:14:24.576Z,7.50
2022-10-22T06:19:25.773Z,10.00
2022-10-22T06:21:53.899Z,10.45
2022-10-22T06:24:21.750Z,12.48
2022-10-22T06:26:51.265Z,13.77
2022-10-22T06:29:19.325Z,11.65
2022-10-22T06:31:48.744Z,11.55
2022-10-22T06:34:18.895Z,12.75
2022-10-22T06:36:47.364Z,11.38
2022-10-22T06:39:17.121Z,7.90
2022-10-22T06:41:45.066Z,9.68
2022-10-22T06:44:16.346Z,10.30
2022-10-22T06:46:44.803Z,12.70
2022-10-22T06:49:17.284Z,9.23
2022-10-22T06:51:45.917Z,10.77
2022-10-22T06:54:13.790Z,8.55
2022-10-22T06:56:42.273Z,8.05
2022-10-22T06:59:10.137Z,15.10
2022-10-22T07:01:39.212Z,10.70
2022-10-22T07:04:09.069Z,25.10
2022-10-22T07:06:38.418Z,39.33
2022-10-22T07:09:06.626Z,26.10
2022-10-22T07:11:41.461Z,17.67
2022-10-22T07:14:09.595Z,19.08
2022-10-22T07:16:37.870Z,25.05
2022-10-22T07:19:06.351Z,23.25
2022-10-22T07:21:34.318Z,23.92
2022-10-22T07:24:07.513Z,17.88
2022-10-22T07:26:35.396Z,16.02
2022-10-22T07:29:03.895Z,13.73
2022-10-22T07:31:32.192Z,14.77
2022-10-22T07:34:00.059Z,11.38
2022-10-22T07:36:27.968Z,10.07
2022-10-22T07:38:58.127Z,11.30
2022-10-22T07:41:28.015Z,11.75
2022-10-22T07:43:57.133Z,9.60
2022-10-22T07:46:25.688Z,15.30
2022-10-22T07:48:53.708Z,12.27
2022-10-22T07:51:21.574Z,16.95
2022-10-22T07:53:49.449Z,11.65
2022-10-22T07:56:17.754Z,14.60
2022-10-22T07:58:46.990Z,12.15
2022-10-22T08:01:15.379Z,10.38
2022-10-22T08:03:43.345Z,13.90
2022-10-22T08:06:14.083Z,11.73
2022-10-22T08:08:43.530Z,11.45
2022-10-22T08:11:11.559Z,44.95
2022-10-22T08:13:45.314Z,45.35
2022-10-22T08:16:15.874Z,19.70
2022-10-22T08:18:43.983Z,18.83
2022-10-22T08:21:12.112Z,19.65
2022-10-22T08:23:40.247Z,18.00
2022-10-22T08:26:08.145Z,18.88
2022-10-22T08:28:37.389Z,12.50
2022-10-22T08:31:07.562Z,15.50
2022-10-22T08:33:37.054Z,16.00
2022-10-22T08:36:06.074Z,13.00
2022-10-22T08:38:35.291Z,14.10
2022-10-22T08:41:10.027Z,17.27
2022-10-22T08:43:59.689Z,11.18
2022-10-22T08:46:40.225Z,12.48
2022-10-22T08:49:16.535Z,12.23
2022-10-22T08:51:44.604Z,9.40
2022-10-22T08:54:23.724Z,13.77
2022-10-22T08:57:03.488Z,13.48
2022-10-22T08:59:39.122Z,11.40
2022-10-22T09:02:27.331Z,12.05
2022-10-22T09:05:03.285Z,11.18
2022-10-22T09:07:31.228Z,10.32
2022-10-22T09:10:02.177Z,10.80
2022-10-22T09:12:30.286Z,12.00
2022-10-22T09:14:58.239Z,13.88
2022-10-22T09:17:37.271Z,57.60
2022-10-22T09:20:15.983Z,21.65
2022-10-22T09:22:51.505Z,10.27
2022-10-22T09:25:24.788Z,14.23
2022-10-22T09:27:58.212Z,11.77
2022-10-22T09:30:29.557Z,14.85
2022-10-22T09:33:02.934Z,9.40
2022-10-22T09:35:35.411Z,13.65
2022-10-22T09:38:08.412Z,12.95
2022-10-22T09:40:44.429Z,14.40
2022-10-22T09:43:14.553Z,9.73
2022-10-22T09:45:43.099Z,14.50
2022-10-22T09:48:17.240Z,14.63
2022-10-22T09:50:48.761Z,13.93
2022-10-22T09:53:20.772Z,16.60
2022-10-22T09:58:22.116Z,15.43
2022-10-22T10:00:56.500Z,16.05
2022-10-22T10:03:27.606Z,18.63
2022-10-22T10:06:03.137Z,19.88
2022-10-22T10:08:34.009Z,20.60
2022-10-22T10:11:07.560Z,24.77
2022-10-22T10:13:44.683Z,29.88
2022-10-22T10:16:27.800Z,29.17
2022-10-22T10:19:09.145Z,25.10
2022-10-22T10:21:48.839Z,29.35
2022-10-22T10:24:26.655Z,23.73
2022-10-22T10:27:01.082Z,14.43
2022-10-22T10:29:40.518Z,17.10
2022-10-22T10:32:24.518Z,12.73
2022-10-22T10:35:02.836Z,10.65
2022-10-22T10:37:41.731Z,12.05
2022-10-22T10:40:24.972Z,11.13
2022-10-22T10:42:59.779Z,13.80
2022-10-22T10:45:37.054Z,11.63
2022-10-22T10:48:42.618Z,18.63
2022-10-22T10:51:23.204Z,15.85
2022-10-22T10:54:14.741Z,17.70
2022-10-22T10:56:48.486Z,17.75
2022-10-22T10:59:24.866Z,17.70
2022-10-22T11:02:21.821Z,17.58
2022-10-22T11:05:13.030Z,16.63
2022-10-22T11:07:47.946Z,14.38
2022-10-22T11:10:28.996Z,18.25
2022-10-22T11:13:03.341Z,14.38
2022-10-22T11:15:35.171Z,17.00
2022-10-22T11:18:13.793Z,17.48
2022-10-22T11:20:50.575Z,14.82
2022-10-22T11:23:25.815Z,15.25
2022-10-22T11:25:55.179Z,13.65
2022-10-22T11:28:28.740Z,18.13
2022-10-22T11:31:02.657Z,14.13
2022-10-22T11:33:43.672Z,13.80
2022-10-22T11:36:13.279Z,14.98
2022-10-22T11:38:41.171Z,16.67
2022-10-22T11:41:13.772Z,13.30
2022-10-22T11:44:00.014Z,19.70
2022-10-22T11:46:40.390Z,17.55
2022-10-22T11:51:48.063Z,15.68
2022-10-22T11:54:42.705Z,13.10
2022-10-22T11:57:38.179Z,12.63
2022-10-22T12:00:13.889Z,14.32
2022-10-22T12:02:44.032Z,13.43
2022-10-22T12:05:45.595Z,14.27
2022-10-22T12:08:21.487Z,15.77
2022-10-22T12:11:01.187Z,22.83
2022-10-22T12:13:33.308Z,12.48
2022-10-22T12:16:04.833Z,15.60
2022-10-22T12:18:41.520Z,15.48
2022-10-22T12:21:13.389Z,16.15
2022-10-22T12:23:41.638Z,14.25
2022-10-22T12:26:24.868Z,17.80
2022-10-22T12:28:58.531Z,15.55
2022-10-22T12:31:26.912Z,16.17
2022-10-22T12:33:58.775Z,14.38
2022-10-22T12:36:28.046Z,15.50
2022-10-22T12:38:56.035Z,16.25
2022-10-22T12:41:31.878Z,17.35
2022-10-22T12:44:02.751Z,16.52
2022-10-22T12:46:33.276Z,16.27
2022-10-22T12:49:01.938Z,18.88
2022-10-22T12:54:08.609Z,14.18
2022-10-22T12:56:38.494Z,15.15
2022-10-22T12:59:17.524Z,17.15
2022-10-22T13:01:45.812Z,17.25
2022-10-22T13:04:33.806Z,13.30
2022-10-22T13:07:08.236Z,15.95
2022-10-22T13:09:40.487Z,20.92
2022-10-22T13:12:10.817Z,16.20
2022-10-22T13:14:40.083Z,16.05
2022-10-22T13:17:11.622Z,17.45
2022-10-22T13:19:43.120Z,20.10
2022-10-22T13:22:29.197Z,21.77
2022-10-22T13:24:59.718Z,19.75
2022-10-22T13:27:31.955Z,19.02
2022-10-22T13:30:04.308Z,22.85
2022-10-22T13:32:34.681Z,27.90
2022-10-22T13:37:35.754Z,20.30
2022-10-22T13:42:15.344Z,25.83
2022-10-22T13:44:43.190Z,24.40
2022-10-22T13:47:22.602Z,22.67
2022-10-22T13:49:50.614Z,22.13
2022-10-22T13:52:28.914Z,21.25
2022-10-22T13:54:56.806Z,23.13
2022-10-22T13:57:26.044Z,26.45
2022-10-22T13:59:53.904Z,28.15
2022-10-22T14:02:24.720Z,24.88
2022-10-22T14:04:53.750Z,25.58
2022-10-22T14:07:22.576Z,28.42
2022-10-22T14:09:50.434Z,26.50
2022-10-22T14:12:18.578Z,26.60
2022-10-22T14:14:47.854Z,26.98
2022-10-22T14:17:19.283Z,25.55
2022-10-22T14:19:50.242Z,28.33
2022-10-22T14:22:20.144Z,30.08
2022-10-22T14:24:48.245Z,21.05
2022-10-22T14:27:17.019Z,24.30
2022-10-22T14:29:44.895Z,24.83
2022-10-22T14:32:20.205Z,22.92
2022-10-22T14:34:48.396Z,22.17
2022-10-22T14:37:19.112Z,23.95
2022-10-22T14:39:52.708Z,29.02
2022-10-22T14:42:21.148Z,31.98
2022-10-22T14:44:49.013Z,29.05
2022-10-22T14:47:18.278Z,31.83
2022-10-22T14:49:46.162Z,30.77
2022-10-22T14:52:14.978Z,32.95
2022-10-22T14:54:46.267Z,31.20
2022-10-22T14:57:14.512Z,32.58
2022-10-22T14:59:44.927Z,40.45
2022-10-22T15:04:42.987Z,34.47
2022-10-22T15:07:12.700Z,35.92
2022-10-22T15:09:42.468Z,51.63
2022-10-22T15:12:10.306Z,60.78
2022-10-22T15:14:38.147Z,49.35
2022-10-22T15:17:05.991Z,43.08
2022-10-22T15:19:33.839Z,43.30
2022-10-22T15:22:04.254Z,50.25
2022-10-22T15:26:59.734Z,43.13
2022-10-22T15:29:27.758Z,44.33
2022-10-22T15:31:58.568Z,42.40
2022-10-22T15:34:29.371Z,39.60
2022-10-22T15:36:59.067Z,37.15
2022-10-22T15:39:28.879Z,37.60
2022-10-22T15:41:57.341Z,38.00
2022-10-22T15:44:27.292Z,65.53
2022-10-22T15:46:56.865Z,52.85
2022-10-22T15:49:26.116Z,51.07
2022-10-22T15:51:55.171Z,41.33
2022-10-22T15:54:25.388Z,38.80
2022-10-22T15:56:54.823Z,32.33
2022-10-22T15:59:22.756Z,40.83
2022-10-22T16:01:51.168Z,37.83
2022-10-22T16:04:19.450Z,38.63
2022-10-22T16:06:50.024Z,32.65
2022-10-22T16:09:20.184Z,35.33
2022-10-22T16:11:48.203Z,45.63
2022-10-22T16:14:19.985Z,34.83
2022-10-22T16:16:50.105Z,47.60
2022-10-22T16:19:20.323Z,44.15
2022-10-22T16:21:50.328Z,54.03
2022-10-22T16:24:18.692Z,43.58
2022-10-22T16:26:47.048Z,45.33
2022-10-22T16:29:15.209Z,47.22
2022-10-22T16:31:45.523Z,43.35
2022-10-22T16:34:13.695Z,52.28
2022-10-22T16:36:41.644Z,50.67
2022-10-22T16:39:09.539Z,52.55
2022-10-22T16:41:38.153Z,57.28
2022-10-22T16:44:08.772Z,50.63
2022-10-22T16:46:38.596Z,63.88
2022-10-22T16:49:08.912Z,58.20
2022-10-22T16:51:37.051Z,64.70
2022-10-22T16:54:08.201Z,56.35
2022-10-22T16:56:39.254Z,50.15
2022-10-22T16:59:07.666Z,46.50
2022-10-22T17:01:40.312Z,45.00
2022-10-22T17:04:10.600Z,38.40
2022-10-22T17:06:38.894Z,40.13
2022-10-22T17:09:06.924Z,48.00
2022-10-22T17:11:37.096Z,43.08
2022-10-22T17:14:07.692Z,43.97
2022-10-22T17:16:38.399Z,39.00
2022-10-22T17:19:14.075Z,32.35
2022-10-22T17:21:42.021Z,30.90
2022-10-22T17:24:11.324Z,29.27
2022-10-22T17:26:39.192Z,34.38
2022-10-22T17:29:08.123Z,37.00
2022-10-22T17:31:38.084Z,32.15
2022-10-22T17:34:07.654Z,40.88
2022-10-22T17:36:37.946Z,33.93
2022-10-22T17:39:08.065Z,43.22
2022-10-22T17:41:38.526Z,40.72
2022-10-22T17:46:37.305Z,41.08
2022-10-22T17:49:08.017Z,47.15
2022-10-22T17:51:37.864Z,34.97
2022-10-22T17:54:08.815Z,39.60
2022-10-22T17:56:40.065Z,50.40
2022-10-22T17:59:08.206Z,42.90
2022-10-22T18:01:40.288Z,45.80
2022-10-22T18:04:09.489Z,50.30
2022-10-22T18:06:38.961Z,45.40
2022-10-22T18:09:07.487Z,58.17
2022-10-22T18:11:36.618Z,49.33
2022-10-22T18:14:05.290Z,44.33
2022-10-22T18:16:33.126Z,51.47
2022-10-22T18:19:00.984Z,45.65
2022-10-22T18:21:29.966Z,42.05
2022-10-22T18:24:00.253Z,43.50
2022-10-22T18:26:28.220Z,38.53
2022-10-22T18:28:56.292Z,50.88
2022-10-22T18:31:25.932Z,47.58
2022-10-22T18:36:28.357Z,47.38
2022-10-22T18:38:57.927Z,72.82
2022-10-22T18:41:28.108Z,57.67
2022-10-22T18:43:57.380Z,48.13
2022-10-22T18:46:25.656Z,58.92
2022-10-22T18:48:54.647Z,52.15
2022-10-22T18:51:22.837Z,58.42
2022-10-22T18:54:04.581Z,68.47
2022-10-22T18:56:34.801Z,74.43
2022-10-22T18:59:02.645Z,109.20
2022-10-22T19:01:30.851Z,60.75
2022-10-22T19:03:58.756Z,71.07
2022-10-22T19:06:31.994Z,54.83
2022-10-22T19:09:01.697Z,61.97
2022-10-22T19:11:29.642Z,66.30
2022-10-22T19:13:59.562Z,56.03
2022-10-22T19:16:28.523Z,56.00
2022-10-22T19:19:01.755Z,66.38
2022-10-22T19:21:29.811Z,69.85
2022-10-22T19:23:57.881Z,68.50
2022-10-22T19:26:27.605Z,60.33
2022-10-22T19:28:56.295Z,62.65
2022-10-22T19:31:27.239Z,73.43
2022-10-22T19:33:55.669Z,67.90
2022-10-22T19:36:25.382Z,67.45
2022-10-22T19:38:53.701Z,59.70
2022-10-22T19:41:23.277Z,61.35
2022-10-22T19:43:52.968Z,59.58
2022-10-22T19:46:21.832Z,50.88
2022-10-22T19:48:52.372Z,42.40
2022-10-22T19:51:22.071Z,39.38
2022-10-22T19:53:51.531Z,39.55
2022-10-22T19:56:21.325Z,37.17
2022-10-22T19:58:49.323Z,31.10
2022-10-22T20:01:19.271Z,30.92
2022-10-22T20:03:47.694Z,25.90
2022-10-22T20:06:18.953Z,22.52
2022-10-22T20:08:47.876Z,22.73
2022-10-22T20:11:19.335Z,26.60
2022-10-22T20:13:51.177Z,27.55
2022-10-22T20:16:23.076Z,23.35
2022-10-22T20:18:51.145Z,22.15
2022-10-22T20:21:21.117Z,21.83
2022-10-22T20:23:52.548Z,21.42
2022-10-22T20:26:20.795Z,15.20
2022-10-22T20:28:48.746Z,17.45
2022-10-22T20:31:19.849Z,14.35
2022-10-22T20:33:48.316Z,12.35
2022-10-22T20:36:21.240Z,10.90
2022-10-22T20:38:51.325Z,11.88
2022-10-22T20:41:21.860Z,10.93
2022-10-22T20:43:51.589Z,9.75
2022-10-22T20:46:20.715Z,10.27
2022-10-22T20:48:48.608Z,15.20
2022-10-22T20:51:16.479Z,10.05
2022-10-22T20:53:44.367Z,12.40
2022-10-22T20:56:14.558Z,10.88
2022-10-22T20:58:48.754Z,11.63
2022-10-22T21:01:21.764Z,12.07
2022-10-22T21:03:50.676Z,16.05
2022-10-22T21:06:20.987Z,12.80
2022-10-22T21:11:18.096Z,11.98
2022-10-22T21:13:45.975Z,14.63
2022-10-22T21:16:19.363Z,14.77
2022-10-22T21:18:47.567Z,15.32
2022-10-22T21:21:17.108Z,11.98
2022-10-22T21:23:48.053Z,12.63
2022-10-22T21:26:20.874Z,13.23
2022-10-22T21:28:49.030Z,11.23
2022-10-22T21:31:22.115Z,10.60
2022-10-22T21:33:51.332Z,10.75
2022-10-22T21:36:23.617Z,12.48
2022-10-22T21:38:52.606Z,15.38
2022-10-22T21:41:23.827Z,13.30
2022-10-22T21:43:52.169Z,14.23
2022-10-22T21:46:21.584Z,11.85
2022-10-22T21:48:56.415Z,13.95
2022-10-22T21:51:25.962Z,12.68
2022-10-22T21:53:55.140Z,15.20
2022-10-22T21:56:26.495Z,12.75
2022-10-22T21:58:54.648Z,14.23
2022-10-22T22:01:22.810Z,14.15
2022-10-22T22:03:52.425Z,12.70
2022-10-22T22:06:22.361Z,12.23
2022-10-22T22:08:52.279Z,14.50
2022-10-22T22:11:21.724Z,14.57
2022-10-22T22:13:54.458Z,13.82
2022-10-22T22:16:27.259Z,13.55
2022-10-22T22:18:57.012Z,11.90
2022-10-22T22:21:27.994Z,14.70
2022-10-22T22:23:55.838Z,11.35
2022-10-22T22:26:28.729Z,15.48
2022-10-22T22:29:00.161Z,11.43
2022-10-22T22:31:30.164Z,13.50
2022-10-22T22:34:02.691Z,10.88
2022-10-22T22:36:34.633Z,10.48
2022-10-22T22:39:02.536Z,11.90
2022-10-22T22:41:30.420Z,14.30
2022-10-22T22:43:59.645Z,12.65
2022-10-22T22:46:28.010Z,14.65
2022-10-22T22:48:55.848Z,12.15
2022-10-22T22:51:24.028Z,9.93
2022-10-22T22:53:52.718Z,139.35
2022-10-22T22:56:22.848Z,14.55
2022-10-22T22:58:51.346Z,11.93
2022-10-22T23:01:23.616Z,13.52
2022-10-22T23:03:55.239Z,12.63
2022-10-22T23:06:23.587Z,14.90
2022-10-22T23:08:53.183Z,16.15
2022-10-22T23:11:22.005Z,14.43
2022-10-22T23:13:53.621Z,16.23
2022-10-22T23:16:25.532Z,16.60
2022-10-22T23:18:55.187Z,18.48
2022-10-22T23:21:25.375Z,16.10
2022-10-22T23:23:55.147Z,17.98
2022-10-22T23:26:24.966Z,18.05
2022-10-22T23:28:53.035Z,17.02
2022-10-22T23:31:22.725Z,17.20
2022-10-22T23:33:50.899Z,19.95
2022-10-22T23:36:18.792Z,20.17
2022-10-22T23:38:46.725Z,17.98
2022-10-22T23:41:14.626Z,19.42
2022-10-22T23:43:42.488Z,18.15
2022-10-22T23:46:12.284Z,16.25
2022-10-22T23:48:41.841Z,13.27
2022-10-22T23:51:11.774Z,17.35
2022-10-22T23:53:41.222Z,18.00
2022-10-22T23:56:10.689Z,17.97
2022-10-22T23:58:38.887Z,15.82
